Time;durP1;ratioP1;P1;durP2;ratioP2;P2;SDS_P1;SDS_P2;PMS_P1;PMS_P2;Temp;Humidity;BMP_temperature;BMP_pressure;BME280_temperature;BME280_humidity;BME280_pressure;Samples;Min_cycle;Max_cycle;Signal;HPM_P1;HPM_P2
2021/01/21 00:00:36;;;;;;;3.65;1.20;;;11.40;81.20;;;;;;5092092;28;20379;-61
2021/01/21 00:03:02;;;;;;;2.22;1.20;;;11.40;81.20;;;;;;5091685;28;20028;-62
2021/01/21 00:05:28;;;;;;;1.73;1.13;;;11.50;81.20;;;;;;5092248;28;20131;-61
2021/01/21 00:07:53;;;;;;;2.90;1.35;;;11.50;81.20;;;;;;5092391;28;20024;-61
2021/01/21 00:10:19;;;;;;;3.78;1.10;;;11.50;81.30;;;;;;5091392;28;20407;-61
2021/01/21 00:12:45;;;;;;;2.97;1.50;;;11.50;81.40;;;;;;5093366;28;20073;-62
2021/01/21 00:15:10;;;;;;;5.50;1.80;;;11.60;81.20;;;;;;5095487;28;20044;-62
2021/01/21 00:17:36;;;;;;;2.28;1.05;;;11.60;81.10;;;;;;5095328;28;20024;-61
2021/01/21 00:20:04;;;;;;;1.05;0.75;;;11.60;81.20;;;;;;5095818;28;20564;-61
2021/01/21 00:22:29;;;;;;;4.68;1.45;;;11.60;81.10;;;;;;5095560;28;20020;-61
2021/01/21 00:24:55;;;;;;;2.55;1.38;;;11.70;81.10;;;;;;5094945;28;20073;-61
2021/01/21 00:27:20;;;;;;;1.83;1.30;;;11.70;81.10;;;;;;5095401;28;20115;-61
2021/01/21 00:29:46;;;;;;;5.75;1.38;;;11.70;81.00;;;;;;5095403;28;20043;-61
2021/01/21 00:32:12;;;;;;;2.65;1.65;;;11.70;80.80;;;;;;5094450;28;20058;-61
2021/01/21 00:34:37;;;;;;;3.83;1.33;;;11.70;80.90;;;;;;5095150;28;20082;-61
2021/01/21 00:37:03;;;;;;;6.30;1.75;;;11.70;80.80;;;;;;5095514;28;20110;-61
2021/01/21 00:39:28;;;;;;;2.88;1.17;;;11.70;80.70;;;;;;5094239;28;20024;-62
2021/01/21 00:41:54;;;;;;;2.60;1.75;;;11.70;80.90;;;;;;5095316;28;20040;-61
2021/01/21 00:44:20;;;;;;;1.55;1.17;;;11.70;80.90;;;;;;5094477;28;20107;-62
2021/01/21 00:46:45;;;;;;;2.15;1.20;;;11.70;81.00;;;;;;5095252;28;20024;-61
2021/01/21 00:49:11;;;;;;;2.92;1.63;;;11.70;81.00;;;;;;5093670;28;20054;-61
2021/01/21 00:51:36;;;;;;;2.72;1.20;;;11.70;81.00;;;;;;5092957;28;20077;-61
2021/01/21 00:54:03;;;;;;;1.20;1.10;;;11.70;81.00;;;;;;5094885;28;20036;-61
2021/01/21 00:56:33;;;;;;;4.05;1.40;;;11.60;80.90;;;;;;5093660;28;20387;-61
2021/01/21 00:58:58;;;;;;;2.40;1.00;;;11.60;81.00;;;;;;5092896;28;20024;-62
2021/01/21 01:01:24;;;;;;;3.03;1.48;;;11.60;81.10;;;;;;5094896;28;20031;-61
2021/01/21 01:03:51;;;;;;;1.85;1.05;;;11.60;81.10;;;;;;5093318;28;20023;-61
2021/01/21 01:06:17;;;;;;;2.13;1.08;;;11.60;81.20;;;;;;5092688;28;20050;-62
2021/01/21 01:08:43;;;;;;;2.15;1.33;;;11.60;81.20;;;;;;5094671;28;20101;-61
2021/01/21 01:11:10;;;;;;;17.30;1.45;;;11.60;80.80;;;;;;5093441;28;20449;-62
2021/01/21 01:13:36;;;;;;;2.95;1.10;;;11.60;81.00;;;;;;5093842;28;20020;-61
2021/01/21 01:16:07;;;;;;;2.70;1.13;;;11.70;80.90;;;;;;5094889;28;20139;-62
2021/01/21 01:18:42;;;;;;;4.82;1.30;;;11.70;81.00;;;;;;5093187;28;20025;-62
2021/01/21 01:21:07;;;;;;;1.10;0.95;;;11.70;80.80;;;;;;5092472;28;20031;-62
2021/01/21 01:23:34;;;;;;;4.72;1.02;;;11.70;80.60;;;;;;5092697;28;20032;-62
2021/01/21 01:26:00;;;;;;;1.65;1.20;;;11.70;80.70;;;;;;5093828;28;20031;-62
2021/01/21 01:28:25;;;;;;;2.60;1.17;;;11.70;80.70;;;;;;5093579;28;20463;-62
2021/01/21 01:30:52;;;;;;;3.65;1.10;;;11.70;80.50;;;;;;5094172;28;20062;-61
2021/01/21 01:33:20;;;;;;;1.02;0.90;;;11.70;80.50;;;;;;5093078;28;20039;-62
2021/01/21 01:35:46;;;;;;;2.17;0.88;;;11.80;80.60;;;;;;5093209;28;20418;-61
2021/01/21 01:38:13;;;;;;;3.30;0.60;;;11.70;80.30;;;;;;5092715;28;20471;-61
2021/01/21 01:40:40;;;;;;;4.80;1.50;;;11.80;80.50;;;;;;5092103;28;20024;-61
2021/01/21 01:43:06;;;;;;;3.35;0.95;;;11.80;80.00;;;;;;5094250;28;20024;-61
2021/01/21 01:45:31;;;;;;;3.22;1.02;;;11.80;80.30;;;;;;5094179;28;20028;-62
2021/01/21 01:48:03;;;;;;;0.90;0.90;;;11.80;80.20;;;;;;5093105;28;20377;-62
2021/01/21 01:50:39;;;;;;;2.28;1.02;;;11.80;80.20;;;;;;5092735;28;20020;-62
2021/01/21 01:53:06;;;;;;;3.35;1.10;;;11.70;80.20;;;;;;5092402;28;20024;-62
2021/01/21 01:55:32;;;;;;;2.67;1.02;;;11.80;80.20;;;;;;5091873;28;20395;-62
2021/01/21 01:58:12;;;;;;;1.27;0.75;;;11.80;79.70;;;;;;5092421;28;20035;-62
2021/01/21 02:00:44;;;;;;;4.55;0.98;;;11.80;79.90;;;;;;5092594;28;20080;-61
2021/01/21 02:03:11;;;;;;;3.50;0.88;;;11.80;79.80;;;;;;5093097;28;20031;-62
2021/01/21 02:05:48;;;;;;;3.00;0.98;;;11.80;79.90;;;;;;5092369;28;20024;-62
2021/01/21 02:08:14;;;;;;;1.08;0.98;;;11.80;80.00;;;;;;5092414;28;20028;-61
2021/01/21 02:10:40;;;;;;;2.30;1.13;;;11.80;80.20;;;;;;5091486;28;20070;-62
2021/01/21 02:13:14;;;;;;;1.27;0.93;;;11.80;80.10;;;;;;5092366;28;20119;-61
2021/01/21 02:16:13;;;;;;;2.47;1.15;;;11.80;80.00;;;;;;5091200;28;20028;-62
2021/01/21 02:18:43;;;;;;;3.80;1.20;;;11.80;79.60;;;;;;5091937;28;20067;-62
2021/01/21 02:21:34;;;;;;;1.83;0.95;;;11.80;79.60;;;;;;5092212;28;20030;-61
2021/01/21 02:24:48;;;;;;;2.03;1.05;;;11.70;79.60;;;;;;5091270;28;20020;-62
2021/01/21 02:27:19;;;;;;;0.95;0.70;;;11.70;80.00;;;;;;5091903;28;20499;-61
2021/01/21 02:29:47;;;;;;;4.50;1.20;;;11.70;80.00;;;;;;5097059;28;20024;-62
2021/01/21 02:32:22;;;;;;;1.02;0.70;;;11.80;79.70;;;;;;5091938;28;20064;-61
2021/01/21 02:35:08;;;;;;;2.85;1.38;;;11.70;80.00;;;;;;5091543;28;21287;-62
2021/01/21 02:37:37;;;;;;;0.77;0.77;;;11.80;79.60;;;;;;5091122;28;20024;-62
2021/01/21 02:40:06;;;;;;;0.68;0.63;;;11.80;79.50;;;;;;5093145;28;20028;-61
2021/01/21 02:42:51;;;;;;;2.35;0.90;;;11.80;79.80;;;;;;5082261;28;20115;-61
2021/01/21 02:45:20;;;;;;;1.77;0.90;;;11.80;79.80;;;;;;5091113;28;20109;-61
2021/01/21 02:47:51;;;;;;;2.60;1.00;;;11.80;79.90;;;;;;5091565;28;20043;-62
2021/01/21 02:50:19;;;;;;;1.30;0.80;;;11.80;79.70;;;;;;5091551;28;20028;-61
2021/01/21 02:52:54;;;;;;;2.70;0.98;;;11.90;79.70;;;;;;5091029;28;20051;-61
2021/01/21 02:55:27;;;;;;;2.22;1.05;;;11.80;79.50;;;;;;5092741;28;20439;-61
2021/01/21 02:58:06;;;;;;;1.40;0.80;;;11.90;79.70;;;;;;5090936;28;20080;-62
2021/01/21 03:00:36;;;;;;;2.13;1.05;;;11.90;79.60;;;;;;5092683;28;20023;-62
2021/01/21 03:03:07;;;;;;;6.22;1.20;;;11.90;79.40;;;;;;5093003;28;20108;-61
2021/01/21 03:05:34;;;;;;;1.90;1.17;;;11.80;79.40;;;;;;5090697;28;20023;-62
2021/01/21 03:08:00;;;;;;;1.13;1.00;;;11.90;79.30;;;;;;5092743;28;20138;-62
2021/01/21 03:10:26;;;;;;;2.13;0.75;;;11.90;79.40;;;;;;5092757;28;20032;-62
2021/01/21 03:12:56;;;;;;;1.45;0.63;;;11.90;79.10;;;;;;5090791;28;20038;-62
2021/01/21 03:15:23;;;;;;;1.90;1.00;;;11.80;79.40;;;;;;5092705;28;20036;-62
2021/01/21 03:18:01;;;;;;;1.80;1.17;;;11.80;79.40;;;;;;5091467;28;20020;-62
2021/01/21 03:20:29;;;;;;;2.35;0.93;;;11.80;79.30;;;;;;5091697;28;20036;-61
2021/01/21 03:22:56;;;;;;;1.25;1.00;;;11.80;79.40;;;;;;5091491;28;20020;-61
2021/01/21 03:25:23;;;;;;;1.95;0.90;;;11.80;79.50;;;;;;5091445;28;20032;-61
2021/01/21 03:27:58;;;;;;;4.50;1.35;;;11.80;79.60;;;;;;5090587;28;20027;-62
2021/01/21 03:30:27;;;;;;;6.60;1.40;;;11.80;79.20;;;;;;5091298;28;20051;-61
2021/01/21 03:32:53;;;;;;;1.27;1.10;;;11.80;79.40;;;;;;5092222;28;20024;-61
2021/01/21 03:35:20;;;;;;;3.80;1.23;;;11.70;79.50;;;;;;5090518;28;20138;-61
2021/01/21 03:37:49;;;;;;;3.33;0.98;;;11.70;79.50;;;;;;5092308;28;20024;-61
2021/01/21 03:40:15;;;;;;;2.83;1.17;;;11.70;79.50;;;;;;5090497;28;20044;-61
2021/01/21 03:42:46;;;;;;;3.20;1.13;;;11.70;79.90;;;;;;5091066;28;20442;-61
2021/01/21 03:45:20;;;;;;;3.10;1.20;;;11.60;80.00;;;;;;5091228;28;20024;-61
2021/01/21 03:47:47;;;;;;;5.07;1.35;;;11.60;80.10;;;;;;5091526;28;20048;-61
2021/01/21 03:50:17;;;;;;;5.00;1.02;;;11.60;80.40;;;;;;5095121;28;20395;-61
2021/01/21 03:52:45;;;;;;;1.65;0.85;;;11.60;80.60;;;;;;5094995;28;20031;-61
2021/01/21 03:55:16;;;;;;;2.65;1.45;;;11.60;80.80;;;;;;5094407;28;20136;-61
2021/01/21 03:57:49;;;;;;;2.10;1.20;;;11.60;81.00;;;;;;5094805;28;20021;-61
2021/01/21 04:00:25;;;;;;;3.63;1.33;;;11.60;81.00;;;;;;5095064;28;20028;-61
2021/01/21 04:02:53;;;;;;;2.30;1.35;;;11.60;81.00;;;;;;5094064;28;20028;-61
2021/01/21 04:05:27;;;;;;;3.08;1.00;;;11.60;80.80;;;;;;5094759;28;20036;-61
2021/01/21 04:07:55;;;;;;;1.35;1.00;;;11.60;80.90;;;;;;5094663;28;20031;-62
2021/01/21 04:10:20;;;;;;;2.15;0.90;;;11.60;80.90;;;;;;5093750;28;20391;-61
2021/01/21 04:12:56;;;;;;;1.60;0.93;;;11.60;81.60;;;;;;5094712;28;20028;-61
2021/01/21 04:15:22;;;;;;;1.88;1.10;;;11.60;80.90;;;;;;5093527;28;20090;-62
2021/01/21 04:17:48;;;;;;;3.85;0.80;;;11.60;80.80;;;;;;5094509;28;20032;-62
2021/01/21 04:20:14;;;;;;;2.50;1.10;;;11.70;81.00;;;;;;5094184;28;20036;-61
2021/01/21 04:22:41;;;;;;;2.35;1.05;;;11.60;80.80;;;;;;5093493;28;20028;-62
2021/01/21 04:25:08;;;;;;;3.78;1.08;;;11.70;80.90;;;;;;5094339;28;20032;-61
2021/01/21 04:27:44;;;;;;;1.85;1.15;;;11.60;81.00;;;;;;5094415;28;20024;-61
2021/01/21 04:30:11;;;;;;;1.52;1.10;;;11.60;80.80;;;;;;5093441;28;20032;-61
2021/01/21 04:32:36;;;;;;;1.65;1.25;;;11.70;81.00;;;;;;5094000;28;20031;-61
2021/01/21 04:35:03;;;;;;;6.40;1.10;;;11.70;80.90;;;;;;5095445;28;20415;-61
2021/01/21 04:37:29;;;;;;;1.60;1.08;;;11.70;81.10;;;;;;5093231;28;20020;-61
2021/01/21 04:40:15;;;;;;;1.58;1.05;;;11.70;81.30;;;;;;5094849;28;20477;-61
2021/01/21 04:42:43;;;;;;;4.95;1.13;;;11.70;81.80;;;;;;5093872;28;20028;-61
2021/01/21 04:45:09;;;;;;;4.20;1.50;;;11.60;82.10;;;;;;5094706;28;20031;-62
2021/01/21 04:47:42;;;;;;;1.50;0.85;;;11.60;82.60;;;;;;5093835;28;20055;-61
2021/01/21 04:50:19;;;;;;;3.05;1.10;;;11.60;83.00;;;;;;5093822;28;20073;-61
2021/01/21 04:53:10;;;;;;;5.65;0.90;;;11.60;83.30;;;;;;5086501;28;20108;-61
2021/01/21 04:55:58;;;;;;;4.55;1.45;;;11.70;83.60;;;;;;5093807;28;20040;-61
2021/01/21 04:58:55;;;;;;;1.20;0.52;;;11.70;83.60;;;;;;5073420;28;20035;-61
2021/01/21 05:01:39;;;;;;;2.38;1.23;;;11.60;83.70;;;;;;5093481;28;20071;-61
2021/01/21 05:04:06;;;;;;;7.18;1.10;;;11.70;83.90;;;;;;5093604;28;20020;-61
2021/01/21 05:06:46;;;;;;;2.90;1.05;;;11.70;84.00;;;;;;5095474;28;20051;-61
2021/01/21 05:09:16;;;;;;;5.30;1.25;;;11.70;84.10;;;;;;5104392;28;20035;-62
2021/01/21 05:11:42;;;;;;;2.92;0.95;;;11.70;84.10;;;;;;5094017;28;20073;-61
2021/01/21 05:14:27;;;;;;;4.15;1.13;;;11.70;84.20;;;;;;5094664;28;20051;-61
2021/01/21 05:17:05;;;;;;;5.25;1.90;;;11.70;84.20;;;;;;5094450;28;20112;-61
2021/01/21 05:20:07;;;;;;;1.30;1.00;;;11.60;84.70;;;;;;5046000;28;20055;-61
2021/01/21 05:23:00;;;;;;;1.45;0.82;;;11.40;85.70;;;;;;5103874;28;20433;-61
2021/01/21 05:25:45;;;;;;;8.05;1.27;;;11.10;85.00;;;;;;5106018;28;20182;-60
2021/01/21 05:28:33;;;;;;;1.90;1.08;;;10.90;85.10;;;;;;5108689;28;20081;-61
2021/01/21 05:31:06;;;;;;;4.28;1.38;;;10.80;85.00;;;;;;5104363;28;20430;-61
2021/01/21 05:33:44;;;;;;;1.30;0.73;;;10.70;83.80;;;;;;5112924;28;20031;-61
2021/01/21 05:36:15;;;;;;;3.63;1.10;;;10.50;83.00;;;;;;5110089;28;20035;-61
2021/01/21 05:39:05;;;;;;;6.78;1.42;;;10.40;83.00;;;;;;5110876;28;20080;-61
2021/01/21 05:41:51;;;;;;;3.08;1.02;;;10.30;82.70;;;;;;5109319;28;20053;-61
2021/01/21 05:44:33;;;;;;;3.00;1.00;;;10.20;82.60;;;;;;5110962;28;20024;-61
2021/01/21 05:47:24;;;;;;;6.22;1.20;;;10.10;82.70;;;;;;5111361;28;20532;-61
2021/01/21 05:49:53;;;;;;;6.15;1.42;;;9.90;82.80;;;;;;5110921;28;20016;-61
2021/01/21 05:52:20;;;;;;;6.18;1.70;;;9.90;82.50;;;;;;5112956;28;20024;-61
2021/01/21 05:54:49;;;;;;;3.13;1.17;;;9.90;82.50;;;;;;5108429;28;20115;-61
2021/01/21 05:57:24;;;;;;;2.53;1.00;;;9.80;82.60;;;;;;5099776;28;20028;-61
2021/01/21 05:59:52;;;;;;;4.38;1.15;;;9.80;82.90;;;;;;5107999;28;20024;-61
2021/01/21 06:02:29;;;;;;;4.30;1.45;;;9.70;83.00;;;;;;5098609;28;20040;-61
2021/01/21 06:05:04;;;;;;;7.63;1.60;;;9.80;82.50;;;;;;5107163;28;20063;-61
2021/01/21 06:07:33;;;;;;;7.07;1.85;;;9.70;82.70;;;;;;5111511;28;20124;-61
2021/01/21 06:09:59;;;;;;;2.58;1.30;;;9.70;82.70;;;;;;5108927;28;20063;-61
2021/01/21 06:12:28;;;;;;;3.20;1.23;;;9.60;82.50;;;;;;5110096;28;20082;-61
2021/01/21 06:14:59;;;;;;;4.95;1.13;;;9.60;82.70;;;;;;5110497;28;20031;-61
2021/01/21 06:17:25;;;;;;;5.90;1.58;;;9.70;82.60;;;;;;5102890;28;20023;-61
2021/01/21 06:20:12;;;;;;;5.75;1.75;;;9.60;82.60;;;;;;5112527;28;20114;-69
2021/01/21 06:22:43;;;;;;;5.97;1.60;;;9.50;82.60;;;;;;5107785;28;20038;-61
2021/01/21 06:25:14;;;;;;;11.63;2.17;;;9.40;82.80;;;;;;5108311;28;20034;-61
2021/01/21 06:27:42;;;;;;;5.78;1.70;;;9.30;83.60;;;;;;5099866;28;20440;-61
2021/01/21 06:30:16;;;;;;;7.75;2.10;;;9.20;83.80;;;;;;5106001;28;20027;-62
2021/01/21 06:32:53;;;;;;;7.55;2.47;;;9.10;84.10;;;;;;5108173;28;20084;-62
2021/01/21 06:35:20;;;;;;;5.25;1.60;;;9.10;84.00;;;;;;5109938;28;20550;-61
2021/01/21 06:37:52;;;;;;;2.55;1.35;;;9.00;83.40;;;;;;5107984;28;20290;-61
2021/01/21 06:40:20;;;;;;;5.50;1.73;;;8.90;82.90;;;;;;5109740;28;20051;-63
2021/01/21 06:43:00;;;;;;;4.47;1.23;;;8.80;82.10;;;;;;5107805;28;20027;-64
2021/01/21 06:45:27;;;;;;;5.30;1.75;;;8.70;82.40;;;;;;5109167;28;20570;-61
2021/01/21 06:47:54;;;;;;;8.10;1.42;;;8.60;82.10;;;;;;5108993;28;20471;-61
2021/01/21 06:50:20;;;;;;;7.55;1.60;;;8.60;82.60;;;;;;5108190;28;20521;-61
2021/01/21 06:52:46;;;;;;;4.75;1.20;;;8.60;81.80;;;;;;5110101;28;20024;-62
2021/01/21 06:55:13;;;;;;;4.43;1.25;;;8.50;81.90;;;;;;5108820;28;20050;-61
2021/01/21 06:57:38;;;;;;;7.45;1.50;;;8.50;81.60;;;;;;5108184;28;20391;-63
2021/01/21 07:00:11;;;;;;;4.38;1.58;;;8.40;81.80;;;;;;5109846;28;20105;-63
2021/01/21 07:02:43;;;;;;;5.80;1.70;;;8.40;81.90;;;;;;5109085;28;20028;-63
2021/01/21 07:05:13;;;;;;;6.97;1.83;;;8.40;81.70;;;;;;5109224;28;20479;-60
2021/01/21 07:08:02;;;;;;;3.08;1.13;;;8.40;81.70;;;;;;5109024;28;20023;-62
2021/01/21 07:10:31;;;;;;;4.68;1.20;;;8.40;81.80;;;;;;5107078;28;20052;-61
2021/01/21 07:12:58;;;;;;;2.42;1.00;;;8.40;81.90;;;;;;5109272;28;20490;-60
2021/01/21 07:15:51;;;;;;;2.97;0.98;;;8.30;81.80;;;;;;5099520;28;20043;-61
2021/01/21 07:18:22;;;;;;;4.10;1.20;;;8.30;81.60;;;;;;5105720;28;20024;-61
2021/01/21 07:21:05;;;;;;;6.32;1.40;;;8.20;81.60;;;;;;5106058;28;20028;-61
2021/01/21 07:23:35;;;;;;;7.43;1.88;;;8.30;81.90;;;;;;5111707;28;20110;-61
2021/01/21 07:26:38;;;;;;;8.57;1.52;;;8.30;81.70;;;;;;5111016;28;20031;-61
2021/01/21 07:29:05;;;;;;;9.70;1.70;;;8.30;81.80;;;;;;5107703;28;20074;-60
2021/01/21 07:31:55;;;;;;;8.02;1.45;;;8.30;81.60;;;;;;5114276;28;20099;-61
2021/01/21 07:34:22;;;;;;;5.63;1.58;;;8.30;81.50;;;;;;5096363;28;20043;-61
2021/01/21 07:37:26;;;;;;;5.50;1.42;;;8.20;81.20;;;;;;5111946;28;20467;-61
2021/01/21 07:40:04;;;;;;;7.78;2.45;;;8.20;81.20;;;;;;5112694;28;20023;-62
2021/01/21 07:42:33;;;;;;;4.53;1.58;;;8.20;81.20;;;;;;5114910;28;20043;-61
2021/01/21 07:45:01;;;;;;;4.63;1.50;;;8.20;81.00;;;;;;5109792;27;20047;-61
2021/01/21 07:47:32;;;;;;;4.55;1.67;;;8.10;81.00;;;;;;5111763;28;20432;-62
2021/01/21 07:50:16;;;;;;;8.48;1.75;;;8.10;80.90;;;;;;5111346;27;20028;-61
2021/01/21 07:52:52;;;;;;;8.38;1.48;;;8.10;80.60;;;;;;5113017;28;20093;-61
2021/01/21 07:55:38;;;;;;;5.95;1.75;;;8.00;80.40;;;;;;5103619;28;20499;-62
2021/01/21 07:58:37;;;;;;;8.02;1.83;;;7.90;80.80;;;;;;5106531;28;20028;-62
2021/01/21 08:01:07;;;;;;;5.00;1.55;;;8.00;80.70;;;;;;5093914;28;20043;-62
2021/01/21 08:03:41;;;;;;;6.80;1.58;;;8.00;80.70;;;;;;5109618;28;20158;-62
2021/01/21 08:06:10;;;;;;;6.30;1.73;;;7.90;80.40;;;;;;5108030;28;20443;-63
2021/01/21 08:08:37;;;;;;;6.18;1.45;;;7.90;80.70;;;;;;5104222;28;20028;-71
2021/01/21 08:11:04;;;;;;;4.75;1.48;;;7.90;80.80;;;;;;5113253;28;20070;-63
2021/01/21 08:13:31;;;;;;;4.35;1.45;;;7.90;81.00;;;;;;5098618;28;20028;-62
2021/01/21 08:15:56;;;;;;;3.67;1.42;;;7.90;80.80;;;;;;5103838;28;20394;-61
2021/01/21 08:18:23;;;;;;;10.73;1.50;;;7.90;81.00;;;;;;5098168;28;20026;-61
2021/01/21 08:20:49;;;;;;;14.07;1.83;;;7.90;81.00;;;;;;5095914;28;20137;-62
2021/01/21 08:23:16;;;;;;;6.55;1.67;;;8.00;80.90;;;;;;5101219;28;20114;-62
2021/01/21 08:25:49;;;;;;;8.10;1.30;;;8.00;81.00;;;;;;5106889;28;20020;-61
2021/01/21 08:28:19;;;;;;;3.83;1.55;;;8.00;81.00;;;;;;5108431;28;20097;-61
2021/01/21 08:30:46;;;;;;;5.88;1.65;;;8.00;81.30;;;;;;5098790;28;20113;-61
2021/01/21 08:33:24;;;;;;;8.13;1.92;;;8.00;81.30;;;;;;5102878;28;20020;-62
2021/01/21 08:35:55;;;;;;;8.85;1.45;;;7.90;81.30;;;;;;5099209;28;20043;-62
2021/01/21 08:38:23;;;;;;;6.50;1.92;;;7.90;81.30;;;;;;5099881;28;20035;-63
2021/01/21 08:40:51;;;;;;;5.57;2.05;;;7.90;81.60;;;;;;5094086;28;20609;-63
2021/01/21 08:43:21;;;;;;;7.80;2.15;;;7.90;81.40;;;;;;5089743;28;20395;-63
2021/01/21 08:45:47;;;;;;;9.00;1.95;;;7.90;81.50;;;;;;5093106;28;20047;-63
2021/01/21 08:48:29;;;;;;;13.38;2.28;;;7.80;81.50;;;;;;5093678;28;20041;-62
2021/01/21 08:50:55;;;;;;;6.22;1.77;;;7.80;81.10;;;;;;5094008;28;20035;-63
2021/01/21 08:53:29;;;;;;;4.95;1.80;;;7.70;81.30;;;;;;5094310;28;20111;-62
2021/01/21 08:55:57;;;;;;;9.70;2.05;;;7.60;81.40;;;;;;5093670;28;20113;-63
2021/01/21 08:58:30;;;;;;;7.15;1.90;;;7.60;81.60;;;;;;5093428;28;20089;-63
2021/01/21 09:01:07;;;;;;;7.28;1.77;;;7.60;81.50;;;;;;5094117;28;20047;-62
2021/01/21 09:03:53;;;;;;;7.32;1.75;;;7.60;82.00;;;;;;5093186;28;20032;-62
2021/01/21 09:06:21;;;;;;;7.45;2.63;;;7.60;81.70;;;;;;5094188;28;20115;-63
2021/01/21 09:08:57;;;;;;;9.55;2.20;;;7.60;81.50;;;;;;5108045;28;20052;-63
2021/01/21 09:11:38;;;;;;;4.68;1.70;;;7.50;81.40;;;;;;5093397;28;20093;-64
2021/01/21 09:14:14;;;;;;;8.93;2.17;;;7.50;81.60;;;;;;5101924;28;20035;-63
2021/01/21 09:16:51;;;;;;;5.72;1.98;;;7.50;81.50;;;;;;5108831;28;20161;-61
2021/01/21 09:19:38;;;;;;;5.93;1.30;;;7.50;81.50;;;;;;5099360;28;20111;-61
2021/01/21 09:22:13;;;;;;;9.75;1.90;;;7.50;81.50;;;;;;5110750;28;20019;-62
2021/01/21 09:25:02;;;;;;;8.05;1.67;;;7.60;81.50;;;;;;5110921;28;20051;-62
2021/01/21 09:27:29;;;;;;;7.07;1.55;;;7.60;81.50;;;;;;5110807;28;20038;-61
2021/01/21 09:30:12;;;;;;;9.88;2.17;;;7.60;81.30;;;;;;5112140;28;20481;-61
2021/01/21 09:32:40;;;;;;;7.13;1.50;;;7.60;81.10;;;;;;5111020;28;20479;-61
2021/01/21 09:35:20;;;;;;;6.90;1.65;;;7.60;81.20;;;;;;5113085;28;20039;-61
2021/01/21 09:37:48;;;;;;;10.15;1.95;;;7.60;81.20;;;;;;5108147;28;20027;-62
2021/01/21 09:40:17;;;;;;;7.20;1.67;;;7.60;80.90;;;;;;5112185;27;20088;-61
2021/01/21 09:42:43;;;;;;;11.73;2.10;;;7.60;81.00;;;;;;5097988;28;20063;-61
2021/01/21 09:45:10;;;;;;;8.38;2.17;;;7.60;81.00;;;;;;5103886;28;20090;-61
2021/01/21 09:47:36;;;;;;;5.07;1.27;;;7.60;81.20;;;;;;5098849;28;20052;-62
2021/01/21 09:50:06;;;;;;;9.10;1.90;;;7.60;81.30;;;;;;5103609;28;20016;-61
2021/01/21 09:52:33;;;;;;;7.57;1.83;;;7.70;81.60;;;;;;5109264;28;20020;-62
2021/01/21 09:54:59;;;;;;;3.88;1.20;;;7.70;81.10;;;;;;5108407;28;20032;-62
2021/01/21 09:57:26;;;;;;;6.65;1.88;;;7.70;81.00;;;;;;5107165;28;20030;-61
2021/01/21 09:59:51;;;;;;;5.22;1.55;;;7.70;81.00;;;;;;5101413;28;20031;-62
2021/01/21 10:02:17;;;;;;;6.53;1.73;;;7.70;81.00;;;;;;5109166;28;20522;-62
2021/01/21 10:04:43;;;;;;;7.90;2.20;;;7.70;80.90;;;;;;5103565;28;20039;-63
2021/01/21 10:07:09;;;;;;;9.50;2.38;;;7.80;80.80;;;;;;5095335;28;20056;-62
2021/01/21 10:09:36;;;;;;;7.32;1.60;;;7.80;80.70;;;;;;5108446;28;20023;-61
2021/01/21 10:12:02;;;;;;;8.15;2.70;;;7.70;80.70;;;;;;5110639;28;20042;-62
2021/01/21 10:14:28;;;;;;;9.07;1.75;;;7.80;80.70;;;;;;5108378;28;20134;-62
2021/01/21 10:16:54;;;;;;;6.13;1.98;;;7.80;80.90;;;;;;5109202;28;20546;-62
2021/01/21 10:19:20;;;;;;;6.50;1.90;;;7.80;80.60;;;;;;5107576;28;20069;-62
2021/01/21 10:21:45;;;;;;;4.70;1.70;;;7.70;80.70;;;;;;5109405;28;20482;-62
2021/01/21 10:24:12;;;;;;;7.55;2.00;;;7.80;80.70;;;;;;5108671;28;20020;-62
2021/01/21 10:26:38;;;;;;;14.48;2.10;;;7.70;80.70;;;;;;5111668;28;20032;-62
2021/01/21 10:29:03;;;;;;;14.02;2.10;;;7.70;81.00;;;;;;5111455;28;20114;-62
2021/01/21 10:31:29;;;;;;;10.00;1.95;;;7.80;81.10;;;;;;5105078;28;20114;-62
2021/01/21 10:33:55;;;;;;;6.50;1.40;;;7.80;81.10;;;;;;5098362;28;20495;-61
2021/01/21 10:36:20;;;;;;;9.15;1.77;;;7.80;81.00;;;;;;5105596;28;20066;-61
2021/01/21 10:38:46;;;;;;;8.77;2.47;;;7.80;81.20;;;;;;5111324;28;20025;-62
2021/01/21 10:41:12;;;;;;;4.82;1.63;;;7.90;81.00;;;;;;5111315;28;20387;-62
2021/01/21 10:43:38;;;;;;;7.80;1.70;;;7.90;81.30;;;;;;5108355;28;20015;-62
2021/01/21 10:46:04;;;;;;;6.38;1.90;;;7.90;81.00;;;;;;5109182;28;20027;-62
2021/01/21 10:48:30;;;;;;;5.60;1.65;;;7.90;81.00;;;;;;5108365;28;20092;-62
2021/01/21 10:50:56;;;;;;;8.07;1.88;;;8.00;80.90;;;;;;5109964;28;20027;-62
2021/01/21 10:53:22;;;;;;;6.28;1.80;;;8.00;80.90;;;;;;5109286;28;20378;-62
2021/01/21 10:55:47;;;;;;;5.90;1.85;;;8.00;81.00;;;;;;5109839;28;20525;-62
2021/01/21 10:58:17;;;;;;;5.72;1.58;;;8.00;80.90;;;;;;5109848;28;20387;-62
2021/01/21 11:00:45;;;;;;;10.07;1.83;;;8.00;81.30;;;;;;5111266;28;20475;-62
2021/01/21 11:03:11;;;;;;;8.63;1.77;;;8.00;81.00;;;;;;5106957;28;20527;-62
2021/01/21 11:05:36;;;;;;;9.80;2.22;;;8.00;81.00;;;;;;5108596;28;20039;-62
2021/01/21 11:08:02;;;;;;;9.13;2.30;;;7.90;81.30;;;;;;5109562;28;20055;-62
2021/01/21 11:10:28;;;;;;;11.70;2.20;;;8.00;81.60;;;;;;5109945;28;20545;-61
2021/01/21 11:12:54;;;;;;;8.73;2.10;;;8.00;81.60;;;;;;5103012;28;20532;-62
2021/01/21 11:15:20;;;;;;;6.82;1.88;;;8.00;81.60;;;;;;5109259;28;20047;-61
2021/01/21 11:17:46;;;;;;;5.57;1.63;;;8.00;81.90;;;;;;5107940;28;20035;-62
2021/01/21 11:20:13;;;;;;;11.90;2.50;;;8.10;81.90;;;;;;5095764;28;20028;-62
2021/01/21 11:22:40;;;;;;;9.57;2.00;;;8.20;81.60;;;;;;5094222;28;20035;-62
2021/01/21 11:25:08;;;;;;;10.60;2.80;;;8.10;81.90;;;;;;5092321;28;20472;-62
2021/01/21 11:27:34;;;;;;;10.02;2.25;;;8.10;81.50;;;;;;5109804;28;20028;-62
2021/01/21 11:30:02;;;;;;;14.00;2.67;;;8.10;82.10;;;;;;5109992;28;20026;-62
2021/01/21 11:32:28;;;;;;;10.20;2.08;;;8.10;81.80;;;;;;5107299;28;20375;-62
2021/01/21 11:34:53;;;;;;;7.43;2.45;;;8.20;81.70;;;;;;5108179;28;20044;-62
2021/01/21 11:37:19;;;;;;;3.50;1.52;;;8.10;81.40;;;;;;5108729;28;20073;-62
2021/01/21 11:39:45;;;;;;;7.57;2.38;;;8.20;81.50;;;;;;5092007;28;20039;-62
2021/01/21 11:42:10;;;;;;;14.18;2.75;;;8.10;81.60;;;;;;5091617;28;20053;-61
2021/01/21 11:44:36;;;;;;;8.85;1.90;;;8.20;81.80;;;;;;5090823;28;20817;-61
2021/01/21 11:47:01;;;;;;;10.65;2.00;;;8.30;81.60;;;;;;5092474;28;20020;-63
2021/01/21 11:49:27;;;;;;;10.13;2.35;;;8.40;81.40;;;;;;5094774;28;20055;-68
2021/01/21 11:51:54;;;;;;;10.43;1.92;;;8.40;81.60;;;;;;5091793;28;20404;-61
2021/01/21 11:54:20;;;;;;;9.75;2.33;;;8.40;81.50;;;;;;5101164;28;20479;-63
2021/01/21 11:56:46;;;;;;;8.02;1.70;;;8.50;82.10;;;;;;5110854;28;20046;-61
2021/01/21 11:59:11;;;;;;;8.48;1.65;;;8.60;81.90;;;;;;5110202;28;20438;-62
2021/01/21 12:01:37;;;;;;;4.47;1.63;;;8.60;81.20;;;;;;5098987;28;20084;-61
2021/01/21 12:04:03;;;;;;;8.48;2.28;;;8.60;81.00;;;;;;5094999;28;20024;-62
2021/01/21 12:06:29;;;;;;;6.05;1.25;;;8.70;81.30;;;;;;5108969;28;20028;-61
2021/01/21 12:08:54;;;;;;;7.45;1.65;;;8.70;80.90;;;;;;5111157;28;20027;-61
2021/01/21 12:11:20;;;;;;;5.78;1.80;;;8.70;81.10;;;;;;5114119;28;20497;-60
2021/01/21 12:13:45;;;;;;;6.72;1.88;;;8.80;81.10;;;;;;5111944;28;20024;-61
2021/01/21 12:16:11;;;;;;;10.63;1.95;;;8.70;81.00;;;;;;5113855;28;20039;-60
2021/01/21 12:18:37;;;;;;;8.80;1.63;;;8.80;80.80;;;;;;5111868;28;20028;-61
2021/01/21 12:21:02;;;;;;;8.95;1.45;;;8.80;80.90;;;;;;5113334;28;20024;-61
2021/01/21 12:23:28;;;;;;;10.48;2.03;;;8.80;81.10;;;;;;5113483;28;20035;-60
2021/01/21 12:25:54;;;;;;;6.57;1.95;;;8.70;81.10;;;;;;5112723;28;20032;-60
2021/01/21 12:28:19;;;;;;;9.27;2.25;;;8.70;81.60;;;;;;5113418;28;20028;-60
2021/01/21 12:30:45;;;;;;;7.38;1.85;;;8.70;81.70;;;;;;5112591;28;20088;-61
2021/01/21 12:33:11;;;;;;;5.50;1.85;;;8.70;81.90;;;;;;5113494;28;20024;-61
2021/01/21 12:35:38;;;;;;;9.52;2.25;;;8.80;81.70;;;;;;5111378;28;20054;-60
2021/01/21 12:38:04;;;;;;;5.63;1.92;;;8.80;81.40;;;;;;5108748;28;20517;-61
2021/01/21 12:40:30;;;;;;;3.08;1.95;;;8.80;81.60;;;;;;5094401;28;20039;-61
2021/01/21 12:42:55;;;;;;;10.90;1.90;;;8.80;81.60;;;;;;5093408;28;20118;-61
2021/01/21 12:45:22;;;;;;;10.70;2.50;;;8.90;81.70;;;;;;5094452;28;20039;-61
2021/01/21 12:47:48;;;;;;;8.63;2.53;;;8.90;82.00;;;;;;5101145;28;20143;-61
2021/01/21 12:50:14;;;;;;;4.63;1.95;;;8.90;82.50;;;;;;5105610;28;20130;-60
2021/01/21 12:52:40;;;;;;;12.88;2.15;;;8.90;82.60;;;;;;5113077;28;20032;-62
2021/01/21 12:55:07;;;;;;;8.15;1.88;;;9.00;82.70;;;;;;5108798;28;20039;-61
2021/01/21 12:57:32;;;;;;;4.53;1.63;;;9.00;82.60;;;;;;5109412;28;20123;-61
2021/01/21 12:59:58;;;;;;;4.00;1.73;;;9.00;82.60;;;;;;5107107;28;20107;-61
2021/01/21 13:02:27;;;;;;;4.22;1.27;;;9.00;82.60;;;;;;5110479;28;20016;-61
2021/01/21 13:04:54;;;;;;;7.63;1.95;;;9.10;82.20;;;;;;5108414;28;20059;-61
2021/01/21 13:07:20;;;;;;;3.58;1.63;;;9.10;81.70;;;;;;5107928;28;20035;-61
2021/01/21 13:09:46;;;;;;;7.88;1.98;;;9.10;81.70;;;;;;5110509;28;20038;-60